createdAt,value
2019-02-18T00:01:04.602Z,100.00
2019-02-18T00:03:31.663Z,100.00
2019-02-18T00:05:58.710Z,100.00
2019-02-18T00:08:25.803Z,100.00
2019-02-18T00:10:52.931Z,100.00
2019-02-18T00:13:20.623Z,100.00
2019-02-18T00:15:47.685Z,100.00
2019-02-18T00:18:14.774Z,100.00
2019-02-18T00:20:41.865Z,100.00
2019-02-18T00:23:08.933Z,100.00
2019-02-18T00:25:35.985Z,100.00
2019-02-18T00:28:03.047Z,100.00
2019-02-18T00:30:30.113Z,100.00
2019-02-18T00:32:57.208Z,100.00
2019-02-18T00:35:24.267Z,100.00
2019-02-18T00:37:51.328Z,100.00
2019-02-18T00:40:18.400Z,100.00
2019-02-18T00:42:45.466Z,100.00
2019-02-18T00:45:12.613Z,100.00
2019-02-18T00:47:39.722Z,100.00
2019-02-18T00:50:10.243Z,100.00
2019-02-18T00:52:37.320Z,100.00
2019-02-18T00:55:04.844Z,100.00
2019-02-18T00:57:31.952Z,100.00
2019-02-18T00:59:59.066Z,100.00
2019-02-18T01:02:26.120Z,100.00
2019-02-18T01:04:53.223Z,100.00
2019-02-18T01:07:20.285Z,100.00
2019-02-18T01:09:47.347Z,100.00
2019-02-18T01:12:14.444Z,100.00
2019-02-18T01:14:41.581Z,100.00
2019-02-18T01:17:08.689Z,100.00
2019-02-18T01:19:35.751Z,100.00
2019-02-18T01:22:04.602Z,100.00
2019-02-18T01:24:31.704Z,100.00
2019-02-18T01:26:58.807Z,100.00
2019-02-18T01:29:25.993Z,100.00
2019-02-18T01:31:53.080Z,100.00
2019-02-18T01:34:20.150Z,100.00
2019-02-18T01:36:47.214Z,100.00
2019-02-18T01:39:14.325Z,100.00
2019-02-18T01:41:41.390Z,100.00
2019-02-18T01:44:08.551Z,100.00
2019-02-18T01:46:35.657Z,100.00
2019-02-18T01:49:02.773Z,100.00
2019-02-18T01:51:29.815Z,100.00
2019-02-18T01:53:56.895Z,100.00
2019-02-18T01:56:24.024Z,100.00
2019-02-18T01:58:51.075Z,100.00
2019-02-18T02:01:18.189Z,100.00
2019-02-18T02:03:45.238Z,100.00
2019-02-18T02:06:12.301Z,100.00
2019-02-18T02:08:39.643Z,100.00
2019-02-18T02:11:06.743Z,100.00
2019-02-18T02:13:34.957Z,100.00
2019-02-18T02:16:04.521Z,100.00
2019-02-18T02:18:31.619Z,100.00
2019-02-18T02:20:58.689Z,100.00
2019-02-18T02:23:25.718Z,100.00
2019-02-18T02:25:52.821Z,100.00
2019-02-18T02:28:19.867Z,100.00
2019-02-18T02:30:46.911Z,100.00
2019-02-18T02:33:14.008Z,100.00
2019-02-18T02:35:41.060Z,100.00
2019-02-18T02:38:08.361Z,100.00
2019-02-18T02:40:35.518Z,100.00
2019-02-18T02:43:02.684Z,100.00
2019-02-18T02:45:29.738Z,100.00
2019-02-18T02:47:56.829Z,100.00
2019-02-18T02:50:23.916Z,100.00
2019-02-18T02:52:50.958Z,100.00
2019-02-18T02:55:18.035Z,100.00
2019-02-18T02:57:45.104Z,100.00
2019-02-18T03:00:12.202Z,100.00
2019-02-18T03:02:39.273Z,100.00
2019-02-18T03:05:06.333Z,100.00
2019-02-18T03:07:33.386Z,100.00
2019-02-18T03:10:00.510Z,100.00
2019-02-18T03:12:27.603Z,100.00
2019-02-18T03:14:54.701Z,100.00
2019-02-18T03:17:28.819Z,100.00
2019-02-18T03:19:55.896Z,100.00
2019-02-18T03:22:23.271Z,100.00
2019-02-18T03:25:15.603Z,100.00
2019-02-18T03:27:42.954Z,100.00
2019-02-18T03:30:46.518Z,100.00
2019-02-18T03:33:16.051Z,100.00
2019-02-18T03:35:43.106Z,100.00
2019-02-18T03:38:11.749Z,100.00
2019-02-18T03:40:38.846Z,100.00
2019-02-18T03:43:06.006Z,100.00
2019-02-18T03:45:33.085Z,100.00
2019-02-18T03:48:00.240Z,100.00
2019-02-18T03:50:27.328Z,100.00
2019-02-18T03:52:54.497Z,100.00
2019-02-18T03:55:21.604Z,100.00
2019-02-18T03:57:48.973Z,100.00
2019-02-18T04:00:16.153Z,100.00
2019-02-18T04:02:43.380Z,100.00
2019-02-18T04:05:10.524Z,100.00
2019-02-18T04:07:37.589Z,100.00
2019-02-18T04:10:04.833Z,100.00
2019-02-18T04:12:31.912Z,100.00
2019-02-18T04:14:59.395Z,100.00
2019-02-18T04:17:26.480Z,100.00
2019-02-18T04:19:53.596Z,100.00
2019-02-18T04:22:20.650Z,100.00
2019-02-18T04:24:47.738Z,100.00
2019-02-18T04:27:14.822Z,100.00
2019-02-18T04:29:41.874Z,100.00
2019-02-18T04:32:08.997Z,100.00
2019-02-18T04:34:36.072Z,100.00
2019-02-18T04:37:03.136Z,100.00
2019-02-18T04:39:30.237Z,100.00
2019-02-18T04:41:57.398Z,100.00
2019-02-18T04:44:24.445Z,100.00
2019-02-18T04:46:51.570Z,100.00
2019-02-18T04:49:18.623Z,100.00
2019-02-18T04:51:45.830Z,100.00
2019-02-18T04:54:12.924Z,100.00
2019-02-18T04:56:40.013Z,100.00
2019-02-18T04:59:07.044Z,100.00
2019-02-18T05:01:34.177Z,100.00
2019-02-18T05:04:01.232Z,100.00
2019-02-18T05:06:28.293Z,100.00
2019-02-18T05:09:05.056Z,100.00
2019-02-18T05:12:00.930Z,100.00
2019-02-18T05:14:28.050Z,100.00
2019-02-18T05:16:55.119Z,100.00
2019-02-18T05:19:23.021Z,100.00
2019-02-18T05:21:50.383Z,100.00
2019-02-18T05:24:17.436Z,100.00
2019-02-18T05:26:44.544Z,100.00
2019-02-18T05:29:11.640Z,100.00
2019-02-18T05:31:38.688Z,100.00
2019-02-18T05:34:05.765Z,100.00
2019-02-18T05:36:32.857Z,100.00
2019-02-18T05:38:59.944Z,100.00
2019-02-18T05:41:26.997Z,100.00
2019-02-18T05:44:11.610Z,100.00
2019-02-18T05:46:38.833Z,100.00
2019-02-18T05:49:05.994Z,100.00
2019-02-18T05:51:33.149Z,100.00
2019-02-18T05:54:00.193Z,100.00
2019-02-18T05:56:27.273Z,100.00
2019-02-18T05:58:54.363Z,100.00
2019-02-18T06:01:21.466Z,100.00
2019-02-18T06:03:48.516Z,100.00
2019-02-18T06:06:15.575Z,100.00
2019-02-18T06:08:42.660Z,100.00
2019-02-18T06:11:11.580Z,100.00
2019-02-18T06:13:38.713Z,100.00
2019-02-18T06:16:24.150Z,100.00
2019-02-18T06:18:51.296Z,100.00
2019-02-18T06:21:18.334Z,100.00
2019-02-18T06:23:45.460Z,100.00
2019-02-18T06:26:12.558Z,100.00
2019-02-18T06:28:39.727Z,100.00
2019-02-18T06:31:07.279Z,100.00
2019-02-18T06:33:34.342Z,100.00
2019-02-18T06:36:01.416Z,100.00
2019-02-18T06:38:28.675Z,100.00
2019-02-18T06:40:55.827Z,100.00
2019-02-18T06:43:41.482Z,100.00
2019-02-18T06:46:24.662Z,100.00
2019-02-18T06:48:55.820Z,100.00
2019-02-18T06:51:22.864Z,100.00
2019-02-18T06:53:49.931Z,100.00
2019-02-18T06:56:19.359Z,100.00
2019-02-18T06:59:34.835Z,100.00
2019-02-18T07:02:21.564Z,100.00
2019-02-18T07:05:08.214Z,100.00
2019-02-18T07:07:55.142Z,100.00
2019-02-18T07:10:38.183Z,100.00
2019-02-18T07:13:05.340Z,100.00
2019-02-18T07:15:32.384Z,100.00
2019-02-18T07:17:59.434Z,100.00
2019-02-18T07:20:26.539Z,100.00
2019-02-18T07:22:53.629Z,100.00
2019-02-18T07:25:20.719Z,100.00
2019-02-18T07:27:47.811Z,100.00
2019-02-18T07:30:15.519Z,100.00
2019-02-18T07:32:42.591Z,100.00
2019-02-18T07:35:09.694Z,100.00
2019-02-18T07:37:36.795Z,100.00
2019-02-18T07:40:05.135Z,100.00
2019-02-18T07:42:32.237Z,100.00
2019-02-18T07:44:59.410Z,100.00
2019-02-18T07:47:26.559Z,100.00
2019-02-18T07:49:53.644Z,100.00
2019-02-18T07:52:20.722Z,100.00
2019-02-18T07:54:47.845Z,100.00
2019-02-18T07:57:14.934Z,100.00
2019-02-18T07:59:42.880Z,100.00
2019-02-18T08:02:10.032Z,100.00
2019-02-18T08:04:37.111Z,100.00
2019-02-18T08:07:04.166Z,100.00
2019-02-18T08:09:31.202Z,100.00
2019-02-18T08:11:58.327Z,100.00
2019-02-18T08:14:25.453Z,100.00
2019-02-18T08:16:52.509Z,100.00
2019-02-18T08:19:19.570Z,100.00
2019-02-18T08:21:46.611Z,100.00
2019-02-18T08:24:13.687Z,100.00
2019-02-18T08:26:40.980Z,100.00
2019-02-18T08:29:08.055Z,100.00
2019-02-18T08:31:35.290Z,100.00
2019-02-18T08:34:02.354Z,100.00
2019-02-18T08:36:29.424Z,100.00
2019-02-18T08:38:56.474Z,100.00
2019-02-18T08:41:23.611Z,100.00
2019-02-18T08:43:50.706Z,100.00
2019-02-18T08:46:17.782Z,100.00
2019-02-18T08:48:46.854Z,100.00
2019-02-18T08:51:13.938Z,100.00
2019-02-18T08:54:01.698Z,100.00
2019-02-18T08:56:28.955Z,100.00
2019-02-18T08:58:56.014Z,100.00
2019-02-18T09:01:23.067Z,100.00
2019-02-18T09:03:50.154Z,100.00
2019-02-18T09:06:17.210Z,100.00
2019-02-18T09:08:44.255Z,100.00
2019-02-18T09:11:12.456Z,100.00
2019-02-18T09:13:39.565Z,100.00
2019-02-18T09:16:06.634Z,100.00
2019-02-18T09:18:33.715Z,100.00
2019-02-18T09:21:00.866Z,100.00
2019-02-18T09:23:35.503Z,100.00
2019-02-18T09:29:43.482Z,100.00
2019-02-18T09:32:11.635Z,99.37
2019-02-18T09:34:38.799Z,99.00
2019-02-18T09:37:05.975Z,99.79
2019-02-18T09:40:28.196Z,98.30
2019-02-18T09:42:55.291Z,98.02
2019-02-18T09:45:22.368Z,96.97
2019-02-18T09:47:49.449Z,96.76
2019-02-18T09:50:16.522Z,96.78
2019-02-18T09:52:43.668Z,96.39
2019-02-18T09:55:12.743Z,96.45
2019-02-18T09:57:39.863Z,95.44
2019-02-18T10:00:07.352Z,94.71
2019-02-18T10:02:34.424Z,93.70
2019-02-18T10:05:01.600Z,93.24
2019-02-18T10:07:28.657Z,92.40
2019-02-18T10:09:56.090Z,91.49
2019-02-18T10:12:23.242Z,90.51
2019-02-18T10:14:50.302Z,90.64
2019-02-18T10:18:22.468Z,90.76
2019-02-18T10:24:50.296Z,89.40
2019-02-18T10:27:08.920Z,88.66
2019-02-18T10:29:35.989Z,88.61
2019-02-18T10:32:03.098Z,88.27
2019-02-18T10:34:30.168Z,87.45
2019-02-18T10:36:57.239Z,86.34
2019-02-18T10:39:24.336Z,85.20
2019-02-18T10:41:52.393Z,83.49
2019-02-18T10:44:19.453Z,83.93
2019-02-18T10:46:46.706Z,83.86
2019-02-18T10:49:19.801Z,83.35
2019-02-18T10:51:42.714Z,82.66
2019-02-18T10:54:10.115Z,83.49
2019-02-18T10:56:37.277Z,83.87
2019-02-18T10:59:04.349Z,82.45
2019-02-18T11:01:31.476Z,82.00
2019-02-18T11:03:58.529Z,81.82
2019-02-18T11:06:25.640Z,81.88
2019-02-18T11:08:52.818Z,81.02
2019-02-18T11:11:19.880Z,80.89
2019-02-18T11:13:47.002Z,80.48
2019-02-18T11:16:20.009Z,79.90
2019-02-18T11:18:47.083Z,79.86
2019-02-18T11:21:14.238Z,79.74
2019-02-18T11:23:41.340Z,78.43
2019-02-18T11:26:08.393Z,76.97
2019-02-18T11:28:35.610Z,76.37
2019-02-18T11:31:09.009Z,75.72
2019-02-18T11:33:36.068Z,74.94
2019-02-18T11:36:03.553Z,74.39
2019-02-18T11:38:30.645Z,75.44
2019-02-18T11:40:57.693Z,75.51
2019-02-18T11:43:25.872Z,75.56
2019-02-18T11:45:53.131Z,76.11
2019-02-18T11:48:20.198Z,76.39
2019-02-18T11:50:47.238Z,76.40
2019-02-18T11:53:14.337Z,75.55
2019-02-18T11:55:41.389Z,75.39
2019-02-18T11:58:08.461Z,74.78
2019-02-18T12:00:38.414Z,73.00
2019-02-18T12:03:11.628Z,72.33
2019-02-18T12:05:34.566Z,71.41
2019-02-18T12:08:01.968Z,71.79
2019-02-18T12:10:29.049Z,71.99
2019-02-18T12:16:12.937Z,72.44
2019-02-18T12:18:40.017Z,71.49
2019-02-18T12:21:07.089Z,69.70
2019-02-18T12:23:36.851Z,69.52
2019-02-18T12:26:03.912Z,71.72
2019-02-18T12:28:30.987Z,70.86
2019-02-18T12:30:58.197Z,69.72
2019-02-18T12:33:25.542Z,69.62
2019-02-18T12:35:52.734Z,70.13
2019-02-18T12:38:19.977Z,69.27
2019-02-18T12:40:47.040Z,69.52
2019-02-18T12:43:14.098Z,68.14
2019-02-18T12:45:41.166Z,66.17
2019-02-18T12:48:08.308Z,63.30
2019-02-18T12:50:35.696Z,61.36
2019-02-18T12:53:03.291Z,61.30
2019-02-18T12:55:30.458Z,60.96
2019-02-18T12:57:57.690Z,61.32
2019-02-18T13:00:24.876Z,62.55
2019-02-18T13:02:51.973Z,62.16
2019-02-18T13:05:20.047Z,62.26
2019-02-18T13:07:47.141Z,61.78
2019-02-18T13:10:15.392Z,59.14
2019-02-18T13:12:42.732Z,58.28
2019-02-18T13:15:10.805Z,58.10
2019-02-18T13:17:37.940Z,57.67
2019-02-18T13:20:07.106Z,57.40
2019-02-18T13:22:52.669Z,57.21
2019-02-18T13:25:19.729Z,54.53
2019-02-18T13:27:47.087Z,49.71
2019-02-18T13:30:14.805Z,47.19
2019-02-18T13:32:41.952Z,46.53
2019-02-18T13:35:09.040Z,44.44
2019-02-18T13:37:36.150Z,43.73
2019-02-18T13:40:04.159Z,44.57
2019-02-18T13:42:34.412Z,42.40
2019-02-18T13:45:02.019Z,41.64
2019-02-18T13:47:29.263Z,41.79
2019-02-18T13:49:56.304Z,42.04
2019-02-18T13:52:23.392Z,42.11
2019-02-18T13:55:27.863Z,44.55
2019-02-18T13:57:55.034Z,43.71
2019-02-18T14:00:22.087Z,41.03
2019-02-18T14:02:49.459Z,40.81
2019-02-18T14:05:17.364Z,41.99
2019-02-18T14:07:44.552Z,41.05
2019-02-18T14:10:12.002Z,41.11
2019-02-18T14:12:39.130Z,41.98
2019-02-18T14:15:06.510Z,41.10
2019-02-18T14:17:33.592Z,41.31
2019-02-18T14:20:00.815Z,40.58
2019-02-18T14:22:27.875Z,40.57
2019-02-18T14:25:31.300Z,40.08
2019-02-18T14:27:58.398Z,39.90
2019-02-18T14:30:25.461Z,40.15
2019-02-18T14:32:52.534Z,40.59
2019-02-18T14:35:19.586Z,41.96
2019-02-18T14:37:47.452Z,40.75
2019-02-18T14:40:15.671Z,40.08
2019-02-18T14:42:42.838Z,40.98
2019-02-18T14:45:10.097Z,41.00
2019-02-18T14:47:39.132Z,41.23
2019-02-18T14:50:06.497Z,42.68
2019-02-18T14:52:33.650Z,44.76
2019-02-18T14:55:00.972Z,44.01
2019-02-18T14:57:28.215Z,42.95
2019-02-18T14:59:58.098Z,41.64
2019-02-18T15:02:25.475Z,41.16
2019-02-18T15:04:52.517Z,42.06
2019-02-18T15:07:19.603Z,43.31
2019-02-18T15:09:46.683Z,44.18
2019-02-18T15:12:14.322Z,44.86
2019-02-18T15:14:42.738Z,45.04
2019-02-18T15:17:10.008Z,45.38
2019-02-18T15:19:37.468Z,45.03
2019-02-18T15:22:04.577Z,46.28
2019-02-18T15:24:31.789Z,45.81
2019-02-18T15:26:59.076Z,48.01
2019-02-18T15:29:38.414Z,48.70
2019-02-18T15:32:05.472Z,49.33
2019-02-18T15:34:32.554Z,50.63
2019-02-18T15:36:59.832Z,52.39
2019-02-18T15:39:26.967Z,53.50
2019-02-18T15:42:58.043Z,53.30
2019-02-18T15:45:25.151Z,53.10
2019-02-18T15:47:52.619Z,53.48
2019-02-18T15:50:20.011Z,53.95
2019-02-18T15:52:47.107Z,55.18
2019-02-18T15:55:14.306Z,55.00
2019-02-18T15:57:41.684Z,55.61
2019-02-18T16:00:12.768Z,56.86
2019-02-18T16:02:39.850Z,57.38
2019-02-18T16:05:07.254Z,56.85
2019-02-18T16:07:34.310Z,56.67
2019-02-18T16:10:01.492Z,57.52
2019-02-18T16:12:28.753Z,59.43
2019-02-18T16:15:00.771Z,61.32
2019-02-18T16:17:28.045Z,62.21
2019-02-18T16:19:55.179Z,63.32
2019-02-18T16:22:22.532Z,65.20
2019-02-18T16:24:49.666Z,65.30
2019-02-18T16:27:17.495Z,66.95
2019-02-18T16:29:44.549Z,67.24
2019-02-18T16:32:17.100Z,66.99
2019-02-18T16:34:44.192Z,67.11
2019-02-18T16:37:11.660Z,68.03
2019-02-18T16:39:38.831Z,70.55
2019-02-18T16:42:06.437Z,73.16
2019-02-18T16:44:33.502Z,73.64
2019-02-18T16:47:00.582Z,73.77
2019-02-18T16:49:27.628Z,75.08
2019-02-18T16:51:54.707Z,77.18
2019-02-18T16:54:22.227Z,78.25
2019-02-18T16:56:49.509Z,78.71
2019-02-18T16:59:16.570Z,80.22
2019-02-18T17:01:43.667Z,80.94
2019-02-18T17:04:10.733Z,80.89
2019-02-18T17:06:37.787Z,82.71
2019-02-18T17:09:10.555Z,84.75
2019-02-18T17:11:38.009Z,84.91
2019-02-18T17:14:05.162Z,84.81
2019-02-18T17:16:32.292Z,85.71
2019-02-18T17:18:59.365Z,86.24
2019-02-18T17:21:26.483Z,86.02
2019-02-18T17:23:53.644Z,86.40
2019-02-18T17:26:20.687Z,87.56
2019-02-18T17:28:47.789Z,88.30
2019-02-18T17:31:15.099Z,88.24
2019-02-18T17:33:42.205Z,88.77
2019-02-18T17:36:09.305Z,90.57
2019-02-18T17:38:36.388Z,91.30
2019-02-18T17:41:03.579Z,91.73
2019-02-18T17:43:30.660Z,92.00
2019-02-18T17:45:57.793Z,92.70
2019-02-18T17:48:25.419Z,93.29
2019-02-18T17:50:52.551Z,92.94
2019-02-18T17:53:19.785Z,93.59
2019-02-18T17:55:47.035Z,94.63
2019-02-18T17:58:14.209Z,94.87
2019-02-18T18:00:43.922Z,95.63
2019-02-18T18:03:30.402Z,97.21
2019-02-18T18:05:57.498Z,97.01
2019-02-18T18:08:24.585Z,98.15
2019-02-18T18:10:51.724Z,99.17
2019-02-18T18:13:24.967Z,98.99
2019-02-18T18:15:51.079Z,98.87
2019-02-18T18:18:18.594Z,98.67
2019-02-18T18:20:51.694Z,98.33
2019-02-18T18:23:18.877Z,99.09
2019-02-18T18:25:46.017Z,99.77
2019-02-18T18:28:13.190Z,100.00
2019-02-18T18:30:40.546Z,100.00
2019-02-18T18:33:07.667Z,100.00
2019-02-18T18:35:35.058Z,100.00
2019-02-18T18:38:02.250Z,100.00
2019-02-18T18:40:29.851Z,100.00
2019-02-18T18:42:56.955Z,100.00
2019-02-18T18:45:24.035Z,100.00
2019-02-18T18:47:51.302Z,100.00
2019-02-18T18:50:18.376Z,100.00
2019-02-18T18:52:45.643Z,100.00
2019-02-18T18:55:12.779Z,100.00
2019-02-18T18:57:39.876Z,100.00
2019-02-18T19:00:09.916Z,99.88
2019-02-18T19:02:37.034Z,99.67
2019-02-18T19:05:04.619Z,99.52
2019-02-18T19:07:31.837Z,99.41
2019-02-18T19:09:58.984Z,99.41
2019-02-18T19:16:05.766Z,99.08
2019-02-18T19:18:34.440Z,99.18
2019-02-18T19:21:01.528Z,98.04
2019-02-18T19:23:28.622Z,96.50
2019-02-18T19:25:55.828Z,94.38
2019-02-18T19:28:22.911Z,91.62
2019-02-18T19:30:50.095Z,88.91
2019-02-18T19:33:17.223Z,88.19
2019-02-18T19:35:44.505Z,87.91
2019-02-18T19:38:11.621Z,88.60
2019-02-18T19:40:38.754Z,89.51
2019-02-18T19:43:06.279Z,89.02
2019-02-18T19:45:33.353Z,87.53
2019-02-18T19:48:00.456Z,86.35
2019-02-18T19:50:27.650Z,85.28
2019-02-18T19:52:54.781Z,83.92
2019-02-18T19:55:22.657Z,82.48
2019-02-18T19:58:09.287Z,81.82
2019-02-18T20:00:37.902Z,81.72
2019-02-18T20:03:05.158Z,81.27
2019-02-18T20:05:32.365Z,80.52
2019-02-18T20:07:59.471Z,80.17
2019-02-18T20:10:26.638Z,79.84
2019-02-18T20:12:54.010Z,79.48
2019-02-18T20:15:22.117Z,79.36
2019-02-18T20:18:25.914Z,79.06
2019-02-18T20:20:53.318Z,79.31
2019-02-18T20:23:24.815Z,79.63
2019-02-18T20:25:52.005Z,79.49
2019-02-18T20:28:38.457Z,79.95
2019-02-18T20:31:05.601Z,80.14
2019-02-18T20:33:32.707Z,80.31
2019-02-18T20:36:01.120Z,80.68
2019-02-18T20:38:28.351Z,80.55
2019-02-18T20:40:55.391Z,80.52
2019-02-18T20:43:22.473Z,80.57
2019-02-18T20:45:49.763Z,80.59
2019-02-18T20:48:16.882Z,80.67
2019-02-18T20:50:43.955Z,80.63
2019-02-18T20:53:11.726Z,80.30
2019-02-18T20:55:38.868Z,80.17
2019-02-18T20:58:05.993Z,79.84
2019-02-18T21:00:33.612Z,79.69
2019-02-18T21:03:00.817Z,79.65
2019-02-18T21:05:27.901Z,79.71
2019-02-18T21:07:55.371Z,80.19
2019-02-18T21:10:24.189Z,80.41
2019-02-18T21:12:52.848Z,80.66
2019-02-18T21:15:20.024Z,81.01
2019-02-18T21:17:47.321Z,80.82
2019-02-18T21:20:14.705Z,80.56
2019-02-18T21:22:42.096Z,80.62
2019-02-18T21:25:09.279Z,80.92
2019-02-18T21:27:36.320Z,80.65
2019-02-18T21:30:03.795Z,80.81
2019-02-18T21:32:30.875Z,80.92
2019-02-18T21:34:58.036Z,81.53
2019-02-18T21:37:26.279Z,81.57
2019-02-18T21:39:53.361Z,81.74
2019-02-18T21:42:20.803Z,81.60
2019-02-18T21:44:48.017Z,81.33
2019-02-18T21:47:15.094Z,81.26
2019-02-18T21:50:13.430Z,81.42
2019-02-18T21:52:40.666Z,81.43
2019-02-18T21:55:07.842Z,81.33
2019-02-18T21:57:34.948Z,81.44
2019-02-18T22:00:03.807Z,81.50
2019-02-18T22:02:31.166Z,81.64
2019-02-18T22:05:52.427Z,81.61
2019-02-18T22:08:19.520Z,81.86
2019-02-18T22:10:46.622Z,82.00
2019-02-18T22:13:13.696Z,82.18
2019-02-18T22:15:40.831Z,82.31
2019-02-18T22:18:07.956Z,82.49
2019-02-18T22:20:35.043Z,82.66
2019-02-18T22:23:02.261Z,82.74
2019-02-18T22:25:31.466Z,82.71
2019-02-18T22:27:58.550Z,82.61
2019-02-18T22:30:25.683Z,82.77
2019-02-18T22:32:54.027Z,83.06
2019-02-18T22:35:21.147Z,83.31
2019-02-18T22:37:49.347Z,83.47
2019-02-18T22:40:16.525Z,83.78
2019-02-18T22:42:43.659Z,83.84
2019-02-18T22:45:11.042Z,84.06
2019-02-18T22:47:38.186Z,84.19
2019-02-18T22:50:06.004Z,84.12
2019-02-18T22:52:33.425Z,84.54
2019-02-18T22:55:00.501Z,84.54
2019-02-18T22:57:27.582Z,84.62
2019-02-18T22:59:54.649Z,85.08
2019-02-18T23:02:21.780Z,85.33
2019-02-18T23:04:48.935Z,85.67
2019-02-18T23:07:16.041Z,85.64
2019-02-18T23:09:43.435Z,85.58
2019-02-18T23:12:10.802Z,85.81
2019-02-18T23:14:37.882Z,86.24
2019-02-18T23:17:04.941Z,86.37
2019-02-18T23:19:31.991Z,86.49
2019-02-18T23:21:59.107Z,86.69
2019-02-18T23:24:26.146Z,86.89
2019-02-18T23:26:53.259Z,87.03
2019-02-18T23:29:20.357Z,87.21
2019-02-18T23:31:47.504Z,87.31
2019-02-18T23:34:14.690Z,87.66
2019-02-18T23:36:41.778Z,88.07
2019-02-18T23:39:08.848Z,88.33
2019-02-18T23:41:35.919Z,88.55
2019-02-18T23:44:03.005Z,88.67
2019-02-18T23:46:30.370Z,88.96
2019-02-18T23:48:57.463Z,89.31
2019-02-18T23:51:37.066Z,89.43
2019-02-18T23:54:04.164Z,89.66
2019-02-18T23:56:31.252Z,89.99
2019-02-18T23:58:58.323Z,90.00
